Погода Жуковскоена неделю

Ростовская область, Россия

21 - 27 мая
  • 21мая
    Сегодня
    +11°
    +27°
    Облачно с прояснениями
    ВремяПогодаТемператураВлажностьДавлениеВетер, м/сВероятность осадков
    00:00Ясно и безоблачно+13°C71 %759 мм2.1 м/с2 %
    03:00Ясно и безоблачно+12°C78 %759 мм2.4 м/с2 %
    06:00Ясно и безоблачно+13°C74 %760 мм2.7 м/с2 %
    09:00Ясно и безоблачно+21°C53 %761 мм1.9 м/с2 %
    12:00Ясно и безоблачно+25°C31 %760 мм4.2 м/с2 %
    15:00Облачно с прояснениями+26°C26 %759 мм4.2 м/с2 %
    18:00Ясно и безоблачно+23°C33 %759 мм4.4 м/с2 %
    21:00Ясно и безоблачно+16°C41 %759 мм2.8 м/с2 %
  • 22мая
    Среда
    +11°
    +27°
    Ясно и безоблачно
    ВремяПогодаТемператураВлажностьДавлениеВетер, м/сВероятность осадков
    00:00Ясно и безоблачно+15°C37 %759 мм3.2 м/с2 %
    03:00Ясно и безоблачно+12°C44 %759 мм2.6 м/с2 %
    06:00Ясно и безоблачно+13°C53 %759 мм2.4 м/с2 %
    09:00Ясно и безоблачно+21°C48 %759 мм3.0 м/с2 %
    12:00Ясно и безоблачно+26°C28 %758 мм5.7 м/с2 %
    15:00Ясно и безоблачно+26°C27 %758 мм5.7 м/с2 %
    18:00Ясно и безоблачно+24°C34 %757 мм3.3 м/с2 %
    21:00Ясно и безоблачно+16°C51 %757 мм2.5 м/с2 %
  • 23мая
    Четверг
    +13°
    +26°
    Ясно и безоблачно
    ВремяПогодаТемператураВлажностьДавлениеВетер, м/сВероятность осадков
    00:00Ясно и безоблачно+15°C48 %757 мм3.1 м/с2 %
    03:00Ясно и безоблачно+13°C60 %757 мм2.7 м/с2 %
    06:00Ясно и безоблачно+13°C67 %757 мм3.5 м/с2 %
    09:00Ясно и безоблачно+20°C48 %757 мм4.2 м/с2 %
    12:00Ясно и безоблачно+24°C27 %757 мм5.9 м/с2 %
    15:00Ясно и безоблачно+26°C25 %756 мм5.8 м/с2 %
    18:00Ясно и безоблачно+25°C35 %755 мм4.3 м/с2 %
    21:00Ясно и безоблачно+19°C42 %756 мм4.4 м/с2 %
  • 24мая
    Пятница
    +12°
    +26°
    Практически безоблачно
    ВремяПогодаТемператураВлажностьДавлениеВетер, м/сВероятность осадков
    00:00Ясно и безоблачно+17°C48 %756 мм3.8 м/с2 %
    03:00Ясно и безоблачно+14°C60 %757 мм3.8 м/с2 %
    06:00Ясно и безоблачно+15°C62 %758 мм4.9 м/с2 %
    09:00Ясно и безоблачно+21°C56 %759 мм6.9 м/с2 %
    12:00Практически безоблачно+25°C45 %759 мм8.3 м/с2 %
    15:00Практически безоблачно+25°C36 %759 мм9.0 м/с7 %
    18:00Ясно и безоблачно+24°C34 %759 мм7.9 м/с2 %
    21:00Ясно и безоблачно+20°C27 %761 мм8.4 м/с2 %
  • 25мая
    Суббота
    +12°
    +22°
    Облачно с прояснениями
    ВремяПогодаТемператураВлажностьДавлениеВетер, м/сВероятность осадков
    00:00Ясно и безоблачно+16°C23 %762 мм8.5 м/с2 %
    03:00Ясно и безоблачно+14°C26 %762 мм8.0 м/с2 %
    06:00Ясно и безоблачно+13°C33 %763 мм7.7 м/с2 %
    09:00Ясно и безоблачно+17°C33 %763 мм8.7 м/с2 %
    12:00Облачно с прояснениями+20°C26 %763 мм9.4 м/с2 %
    15:00Облачно с прояснениями+21°C22 %762 мм9.6 м/с2 %
    18:00Облачно с прояснениями+21°C20 %761 мм7.9 м/с2 %
    21:00Пасмурно, сплошная облачность+18°C28 %762 мм8.3 м/с2 %
Мы используем cookies
Соглашаюсь